sensor_id;sensor_type;location;lat;lon;timestamp;temperature;humidity
45803;DHT22;31504;51.716;9.184;2023-05-02T00:02:33;20.90;48.00
45803;DHT22;31504;51.716;9.184;2023-05-02T00:05:33;20.90;48.00
45803;DHT22;31504;51.716;9.184;2023-05-02T00:08:34;20.80;48.10
45803;DHT22;31504;51.716;9.184;2023-05-02T00:11:34;20.90;48.10
45803;DHT22;31504;51.716;9.184;2023-05-02T00:14:35;20.90;48.10
45803;DHT22;31504;51.716;9.184;2023-05-02T00:17:35;20.90;48.10
45803;DHT22;31504;51.716;9.184;2023-05-02T00:20:38;20.90;48.10
45803;DHT22;31504;51.716;9.184;2023-05-02T00:23:38;20.80;48.00
45803;DHT22;31504;51.716;9.184;2023-05-02T00:26:39;20.90;48.10
45803;DHT22;31504;51.716;9.184;2023-05-02T00:29:39;20.90;48.10
45803;DHT22;31504;51.716;9.184;2023-05-02T00:32:43;20.90;48.10
45803;DHT22;31504;51.716;9.184;2023-05-02T00:35:43;20.80;48.10
45803;DHT22;31504;51.716;9.184;2023-05-02T00:38:44;20.90;48.20
45803;DHT22;31504;51.716;9.184;2023-05-02T00:41:44;20.80;48.10
45803;DHT22;31504;51.716;9.184;2023-05-02T00:44:45;20.90;48.20
45803;DHT22;31504;51.716;9.184;2023-05-02T00:47:46;20.80;48.10
45803;DHT22;31504;51.716;9.184;2023-05-02T00:50:46;20.80;48.10
45803;DHT22;31504;51.716;9.184;2023-05-02T00:53:47;20.80;48.10
45803;DHT22;31504;51.716;9.184;2023-05-02T00:56:47;20.90;48.20
45803;DHT22;31504;51.716;9.184;2023-05-02T00:59:48;20.90;48.80
45803;DHT22;31504;51.716;9.184;2023-05-02T01:02:52;20.90;48.20
45803;DHT22;31504;51.716;9.184;2023-05-02T01:13:08;20.90;48.30
45803;DHT22;31504;51.716;9.184;2023-05-02T01:15:43;20.90;48.30
45803;DHT22;31504;51.716;9.184;2023-05-02T01:18:44;20.90;48.20
45803;DHT22;31504;51.716;9.184;2023-05-02T01:25:39;20.90;48.30
45803;DHT22;31504;51.716;9.184;2023-05-02T01:28:59;20.90;48.30
45803;DHT22;31504;51.716;9.184;2023-05-02T01:32:00;20.90;48.30
45803;DHT22;31504;51.716;9.184;2023-05-02T01:35:02;20.90;48.30
45803;DHT22;31504;51.716;9.184;2023-05-02T01:38:04;20.90;48.30
45803;DHT22;31504;51.716;9.184;2023-05-02T01:41:05;20.90;48.30
45803;DHT22;31504;51.716;9.184;2023-05-02T01:44:06;20.90;48.30
45803;DHT22;31504;51.716;9.184;2023-05-02T01:47:07;20.90;48.40
45803;DHT22;31504;51.716;9.184;2023-05-02T01:50:08;20.80;48.30
45803;DHT22;31504;51.716;9.184;2023-05-02T01:53:10;20.90;48.40
45803;DHT22;31504;51.716;9.184;2023-05-02T01:56:13;20.80;48.30
45803;DHT22;31504;51.716;9.184;2023-05-02T01:59:19;20.90;48.40
45803;DHT22;31504;51.716;9.184;2023-05-02T02:02:22;20.90;48.30
45803;DHT22;31504;51.716;9.184;2023-05-02T02:05:23;20.90;48.30
45803;DHT22;31504;51.716;9.184;2023-05-02T02:08:24;20.90;48.30
45803;DHT22;31504;51.716;9.184;2023-05-02T02:11:28;20.90;48.30
45803;DHT22;31504;51.716;9.184;2023-05-02T02:14:35;20.90;48.30
45803;DHT22;31504;51.716;9.184;2023-05-02T02:17:37;20.90;48.40
45803;DHT22;31504;51.716;9.184;2023-05-02T02:20:39;20.90;48.30
45803;DHT22;31504;51.716;9.184;2023-05-02T02:23:42;20.90;48.40
45803;DHT22;31504;51.716;9.184;2023-05-02T02:26:43;20.90;48.40
45803;DHT22;31504;51.716;9.184;2023-05-02T02:29:43;20.90;48.40
45803;DHT22;31504;51.716;9.184;2023-05-02T02:32:44;20.90;48.40
45803;DHT22;31504;51.716;9.184;2023-05-02T02:35:49;20.90;48.40
45803;DHT22;31504;51.716;9.184;2023-05-02T02:48:42;20.90;48.60
45803;DHT22;31504;51.716;9.184;2023-05-02T02:51:46;20.90;48.60
45803;DHT22;31504;51.716;9.184;2023-05-02T02:54:56;20.90;48.60
45803;DHT22;31504;51.716;9.184;2023-05-02T03:01:01;20.90;48.70
45803;DHT22;31504;51.716;9.184;2023-05-02T03:04:02;20.90;48.70
45803;DHT22;31504;51.716;9.184;2023-05-02T03:07:04;20.90;48.80
45803;DHT22;31504;51.716;9.184;2023-05-02T03:10:05;20.90;48.80
45803;DHT22;31504;51.716;9.184;2023-05-02T03:13:06;20.90;48.80
45803;DHT22;31504;51.716;9.184;2023-05-02T03:19:26;20.90;48.80
45803;DHT22;31504;51.716;9.184;2023-05-02T03:22:26;20.90;48.70
45803;DHT22;31504;51.716;9.184;2023-05-02T03:25:27;20.90;48.70
45803;DHT22;31504;51.716;9.184;2023-05-02T03:28:27;20.90;48.70
45803;DHT22;31504;51.716;9.184;2023-05-02T03:31:28;20.90;48.60
45803;DHT22;31504;51.716;9.184;2023-05-02T03:34:28;20.90;48.70
45803;DHT22;31504;51.716;9.184;2023-05-02T03:37:29;20.80;48.70
45803;DHT22;31504;51.716;9.184;2023-05-02T03:40:29;20.80;48.60
45803;DHT22;31504;51.716;9.184;2023-05-02T03:43:30;20.80;48.60
45803;DHT22;31504;51.716;9.184;2023-05-02T03:46:30;20.90;48.70
45803;DHT22;31504;51.716;9.184;2023-05-02T03:49:32;20.90;48.70
45803;DHT22;31504;51.716;9.184;2023-05-02T03:52:33;20.90;48.70
45803;DHT22;31504;51.716;9.184;2023-05-02T03:55:43;20.90;48.60
45803;DHT22;31504;51.716;9.184;2023-05-02T03:58:44;20.90;49.30
45803;DHT22;31504;51.716;9.184;2023-05-02T04:01:48;20.90;48.70
45803;DHT22;31504;51.716;9.184;2023-05-02T04:04:52;20.90;49.30
45803;DHT22;31504;51.716;9.184;2023-05-02T04:07:52;20.80;48.70
45803;DHT22;31504;51.716;9.184;2023-05-02T04:10:52;20.90;48.70
45803;DHT22;31504;51.716;9.184;2023-05-02T04:13:53;20.90;48.70
45803;DHT22;31504;51.716;9.184;2023-05-02T04:16:53;20.90;48.70
45803;DHT22;31504;51.716;9.184;2023-05-02T04:19:54;20.90;48.70
45803;DHT22;31504;51.716;9.184;2023-05-02T04:22:54;20.90;48.70
45803;DHT22;31504;51.716;9.184;2023-05-02T04:25:54;20.90;48.70
45803;DHT22;31504;51.716;9.184;2023-05-02T04:28:55;20.90;48.80
45803;DHT22;31504;51.716;9.184;2023-05-02T04:31:56;20.90;48.70
45803;DHT22;31504;51.716;9.184;2023-05-02T04:34:56;20.90;48.70
45803;DHT22;31504;51.716;9.184;2023-05-02T04:37:57;20.90;48.70
45803;DHT22;31504;51.716;9.184;2023-05-02T04:40:57;20.90;48.80
45803;DHT22;31504;51.716;9.184;2023-05-02T04:43:57;20.90;48.80
45803;DHT22;31504;51.716;9.184;2023-05-02T04:46:58;20.90;48.80
45803;DHT22;31504;51.716;9.184;2023-05-02T04:49:58;20.90;48.80
45803;DHT22;31504;51.716;9.184;2023-05-02T04:52:59;20.90;48.80
45803;DHT22;31504;51.716;9.184;2023-05-02T04:55:59;20.90;48.80
45803;DHT22;31504;51.716;9.184;2023-05-02T04:59:00;20.90;48.80
45803;DHT22;31504;51.716;9.184;2023-05-02T05:02:00;20.90;48.80
45803;DHT22;31504;51.716;9.184;2023-05-02T05:05:02;20.90;48.70
45803;DHT22;31504;51.716;9.184;2023-05-02T05:08:03;20.90;48.70
45803;DHT22;31504;51.716;9.184;2023-05-02T05:11:03;20.90;48.80
45803;DHT22;31504;51.716;9.184;2023-05-02T05:14:04;20.90;48.90
45803;DHT22;31504;51.716;9.184;2023-05-02T05:17:04;20.90;49.10
45803;DHT22;31504;51.716;9.184;2023-05-02T05:20:05;20.90;49.30
45803;DHT22;31504;51.716;9.184;2023-05-02T05:23:06;20.90;49.30
45803;DHT22;31504;51.716;9.184;2023-05-02T05:26:09;20.90;49.30
45803;DHT22;31504;51.716;9.184;2023-05-02T05:29:10;20.90;49.30
45803;DHT22;31504;51.716;9.184;2023-05-02T05:32:10;20.90;49.30
45803;DHT22;31504;51.716;9.184;2023-05-02T05:35:11;20.90;49.30
45803;DHT22;31504;51.716;9.184;2023-05-02T05:38:12;20.90;49.30
45803;DHT22;31504;51.716;9.184;2023-05-02T05:41:12;21.00;49.40
45803;DHT22;31504;51.716;9.184;2023-05-02T05:44:13;20.90;49.40
45803;DHT22;31504;51.716;9.184;2023-05-02T05:47:17;21.00;49.40
45803;DHT22;31504;51.716;9.184;2023-05-02T05:50:18;21.00;49.40
45803;DHT22;31504;51.716;9.184;2023-05-02T05:53:18;20.90;50.00
45803;DHT22;31504;51.716;9.184;2023-05-02T05:56:19;21.00;49.40
45803;DHT22;31504;51.716;9.184;2023-05-02T05:59:21;20.90;49.40
45803;DHT22;31504;51.716;9.184;2023-05-02T06:02:21;20.90;49.40
45803;DHT22;31504;51.716;9.184;2023-05-02T06:05:23;21.00;49.50
45803;DHT22;31504;51.716;9.184;2023-05-02T06:08:23;21.00;49.50
45803;DHT22;31504;51.716;9.184;2023-05-02T06:11:24;21.00;49.60
45803;DHT22;31504;51.716;9.184;2023-05-02T06:14:25;21.00;49.60
45803;DHT22;31504;51.716;9.184;2023-05-02T06:17:26;21.00;49.60
45803;DHT22;31504;51.716;9.184;2023-05-02T06:20:26;21.00;49.70
45803;DHT22;31504;51.716;9.184;2023-05-02T06:23:26;20.90;49.60
45803;DHT22;31504;51.716;9.184;2023-05-02T06:26:27;21.00;49.70
45803;DHT22;31504;51.716;9.184;2023-05-02T06:29:27;20.90;49.60
45803;DHT22;31504;51.716;9.184;2023-05-02T06:32:31;20.90;50.20
45803;DHT22;31504;51.716;9.184;2023-05-02T06:35:31;21.00;49.60
45803;DHT22;31504;51.716;9.184;2023-05-02T06:38:32;21.00;49.60
45803;DHT22;31504;51.716;9.184;2023-05-02T06:41:32;21.00;49.60
45803;DHT22;31504;51.716;9.184;2023-05-02T06:44:32;21.00;49.60
45803;DHT22;31504;51.716;9.184;2023-05-02T06:47:33;21.00;49.60
45803;DHT22;31504;51.716;9.184;2023-05-02T06:50:33;20.90;49.60
45803;DHT22;31504;51.716;9.184;2023-05-02T06:53:34;20.90;49.60
45803;DHT22;31504;51.716;9.184;2023-05-02T06:56:34;21.00;49.70
45803;DHT22;31504;51.716;9.184;2023-05-02T06:59:35;21.00;49.70
45803;DHT22;31504;51.716;9.184;2023-05-02T07:02:35;20.90;49.70
45803;DHT22;31504;51.716;9.184;2023-05-02T07:05:36;21.00;49.80
45803;DHT22;31504;51.716;9.184;2023-05-02T07:08:36;21.00;49.70
45803;DHT22;31504;51.716;9.184;2023-05-02T07:11:37;20.90;49.60
45803;DHT22;31504;51.716;9.184;2023-05-02T07:14:37;20.90;49.50
45803;DHT22;31504;51.716;9.184;2023-05-02T07:17:39;20.90;49.50
45803;DHT22;31504;51.716;9.184;2023-05-02T07:20:40;20.90;49.50
45803;DHT22;31504;51.716;9.184;2023-05-02T07:23:41;20.90;49.40
45803;DHT22;31504;51.716;9.184;2023-05-02T07:26:42;20.90;49.50
45803;DHT22;31504;51.716;9.184;2023-05-02T07:29:42;20.90;49.40
45803;DHT22;31504;51.716;9.184;2023-05-02T07:32:43;20.90;49.40
45803;DHT22;31504;51.716;9.184;2023-05-02T07:35:44;20.90;49.40
45803;DHT22;31504;51.716;9.184;2023-05-02T07:38:44;20.90;49.30
45803;DHT22;31504;51.716;9.184;2023-05-02T07:41:44;20.90;49.30
45803;DHT22;31504;51.716;9.184;2023-05-02T07:44:45;20.90;49.30
45803;DHT22;31504;51.716;9.184;2023-05-02T07:47:45;20.90;49.40
45803;DHT22;31504;51.716;9.184;2023-05-02T07:50:46;20.90;49.30
45803;DHT22;31504;51.716;9.184;2023-05-02T07:53:48;20.90;49.30
45803;DHT22;31504;51.716;9.184;2023-05-02T07:56:49;20.90;49.30
45803;DHT22;31504;51.716;9.184;2023-05-02T07:59:49;20.90;49.30
45803;DHT22;31504;51.716;9.184;2023-05-02T08:02:50;20.90;49.30
45803;DHT22;31504;51.716;9.184;2023-05-02T08:05:50;20.90;49.40
45803;DHT22;31504;51.716;9.184;2023-05-02T08:08:51;20.90;49.30
45803;DHT22;31504;51.716;9.184;2023-05-02T08:11:51;20.90;49.30
45803;DHT22;31504;51.716;9.184;2023-05-02T08:14:52;20.90;49.30
45803;DHT22;31504;51.716;9.184;2023-05-02T08:17:52;20.90;49.20
45803;DHT22;31504;51.716;9.184;2023-05-02T08:20:54;20.90;49.20
45803;DHT22;31504;51.716;9.184;2023-05-02T08:23:58;20.90;49.20
45803;DHT22;31504;51.716;9.184;2023-05-02T08:26:58;20.90;49.20
45803;DHT22;31504;51.716;9.184;2023-05-02T08:29:59;21.00;49.20
45803;DHT22;31504;51.716;9.184;2023-05-02T08:32:59;20.90;49.20
45803;DHT22;31504;51.716;9.184;2023-05-02T08:36:00;20.90;49.20
45803;DHT22;31504;51.716;9.184;2023-05-02T08:39:00;20.90;49.20
45803;DHT22;31504;51.716;9.184;2023-05-02T08:42:04;20.90;49.20
45803;DHT22;31504;51.716;9.184;2023-05-02T08:45:05;20.90;49.20
45803;DHT22;31504;51.716;9.184;2023-05-02T08:48:10;20.90;49.20
45803;DHT22;31504;51.716;9.184;2023-05-02T08:51:12;20.90;49.20
45803;DHT22;31504;51.716;9.184;2023-05-02T08:54:15;20.90;49.20
45803;DHT22;31504;51.716;9.184;2023-05-02T08:57:16;20.90;49.20
45803;DHT22;31504;51.716;9.184;2023-05-02T09:00:16;20.90;49.80
45803;DHT22;31504;51.716;9.184;2023-05-02T09:03:30;20.90;49.20
45803;DHT22;31504;51.716;9.184;2023-05-02T09:06:32;20.90;49.20
45803;DHT22;31504;51.716;9.184;2023-05-02T09:09:32;20.90;49.10
45803;DHT22;31504;51.716;9.184;2023-05-02T09:12:33;20.90;49.20
45803;DHT22;31504;51.716;9.184;2023-05-02T09:15:33;20.90;49.10
45803;DHT22;31504;51.716;9.184;2023-05-02T09:18:37;20.90;49.20
45803;DHT22;31504;51.716;9.184;2023-05-02T09:21:38;20.90;49.20
45803;DHT22;31504;51.716;9.184;2023-05-02T09:24:39;20.90;49.10
45803;DHT22;31504;51.716;9.184;2023-05-02T09:27:49;20.90;49.00
45803;DHT22;31504;51.716;9.184;2023-05-02T09:30:51;20.90;49.00
45803;DHT22;31504;51.716;9.184;2023-05-02T09:34:09;20.90;49.00
45803;DHT22;31504;51.716;9.184;2023-05-02T09:37:10;21.00;49.00
45803;DHT22;31504;51.716;9.184;2023-05-02T09:40:12;20.90;49.00
45803;DHT22;31504;51.716;9.184;2023-05-02T09:43:13;20.90;49.00
45803;DHT22;31504;51.716;9.184;2023-05-02T09:46:15;20.90;49.00
45803;DHT22;31504;51.716;9.184;2023-05-02T09:49:15;20.90;49.00
45803;DHT22;31504;51.716;9.184;2023-05-02T09:52:19;20.90;49.00
45803;DHT22;31504;51.716;9.184;2023-05-02T09:55:23;20.90;49.00
45803;DHT22;31504;51.716;9.184;2023-05-02T09:58:24;20.90;48.90
45803;DHT22;31504;51.716;9.184;2023-05-02T10:01:24;20.90;48.90
45803;DHT22;31504;51.716;9.184;2023-05-02T10:04:25;20.90;48.90
45803;DHT22;31504;51.716;9.184;2023-05-02T10:07:26;20.90;48.90
45803;DHT22;31504;51.716;9.184;2023-05-02T10:10:27;20.90;48.90
45803;DHT22;31504;51.716;9.184;2023-05-02T10:13:28;20.90;48.80
45803;DHT22;31504;51.716;9.184;2023-05-02T10:16:33;20.90;48.80
45803;DHT22;31504;51.716;9.184;2023-05-02T10:19:44;20.90;49.40
45803;DHT22;31504;51.716;9.184;2023-05-02T10:22:47;20.90;48.80
45803;DHT22;31504;51.716;9.184;2023-05-02T10:25:48;20.90;48.70
45803;DHT22;31504;51.716;9.184;2023-05-02T10:28:49;21.00;48.70
45803;DHT22;31504;51.716;9.184;2023-05-02T10:31:50;20.90;48.60
45803;DHT22;31504;51.716;9.184;2023-05-02T10:34:51;20.90;48.60
45803;DHT22;31504;51.716;9.184;2023-05-02T10:37:52;20.90;48.60
45803;DHT22;31504;51.716;9.184;2023-05-02T10:40:53;20.90;48.60
45803;DHT22;31504;51.716;9.184;2023-05-02T10:43:55;20.90;48.60
45803;DHT22;31504;51.716;9.184;2023-05-02T10:46:55;20.90;48.60
45803;DHT22;31504;51.716;9.184;2023-05-02T10:49:57;20.90;48.50
45803;DHT22;31504;51.716;9.184;2023-05-02T10:52:59;20.90;48.50
45803;DHT22;31504;51.716;9.184;2023-05-02T10:56:19;20.90;48.50
45803;DHT22;31504;51.716;9.184;2023-05-02T11:05:31;20.90;48.60
45803;DHT22;31504;51.716;9.184;2023-05-02T11:08:36;20.90;48.80
45803;DHT22;31504;51.716;9.184;2023-05-02T11:11:40;21.00;48.90
45803;DHT22;31504;51.716;9.184;2023-05-02T11:14:41;20.90;48.80
45803;DHT22;31504;51.716;9.184;2023-05-02T11:18:01;21.00;48.80
45803;DHT22;31504;51.716;9.184;2023-05-02T11:21:47;21.00;48.80
45803;DHT22;31504;51.716;9.184;2023-05-02T11:27:41;20.90;48.60
45803;DHT22;31504;51.716;9.184;2023-05-02T11:30:44;21.00;48.80
45803;DHT22;31504;51.716;9.184;2023-05-02T11:33:54;21.00;48.70
45803;DHT22;31504;51.716;9.184;2023-05-02T11:36:54;21.00;48.70
45803;DHT22;31504;51.716;9.184;2023-05-02T11:40:08;21.00;48.70
45803;DHT22;31504;51.716;9.184;2023-05-02T11:43:14;21.00;49.30
45803;DHT22;31504;51.716;9.184;2023-05-02T11:46:15;21.00;48.50
45803;DHT22;31504;51.716;9.184;2023-05-02T11:49:16;21.00;48.60
45803;DHT22;31504;51.716;9.184;2023-05-02T11:52:17;21.00;48.60
45803;DHT22;31504;51.716;9.184;2023-05-02T11:55:17;21.00;48.60
45803;DHT22;31504;51.716;9.184;2023-05-02T11:58:18;21.00;48.50
45803;DHT22;31504;51.716;9.184;2023-05-02T12:01:19;21.00;48.50
45803;DHT22;31504;51.716;9.184;2023-05-02T12:04:19;21.00;48.50
45803;DHT22;31504;51.716;9.184;2023-05-02T12:07:32;21.00;48.40
45803;DHT22;31504;51.716;9.184;2023-05-02T12:10:36;21.00;48.50
45803;DHT22;31504;51.716;9.184;2023-05-02T12:13:43;21.00;48.30
45803;DHT22;31504;51.716;9.184;2023-05-02T12:16:43;21.00;48.40
45803;DHT22;31504;51.716;9.184;2023-05-02T12:19:44;21.00;48.30
45803;DHT22;31504;51.716;9.184;2023-05-02T12:22:45;21.00;48.40
45803;DHT22;31504;51.716;9.184;2023-05-02T12:25:45;21.00;48.40
45803;DHT22;31504;51.716;9.184;2023-05-02T12:28:46;21.00;48.50
45803;DHT22;31504;51.716;9.184;2023-05-02T12:31:51;21.00;48.50
45803;DHT22;31504;51.716;9.184;2023-05-02T12:34:51;21.00;48.50
45803;DHT22;31504;51.716;9.184;2023-05-02T12:37:52;21.00;48.60
45803;DHT22;31504;51.716;9.184;2023-05-02T12:40:55;21.00;48.50
45803;DHT22;31504;51.716;9.184;2023-05-02T12:43:56;21.00;48.50
45803;DHT22;31504;51.716;9.184;2023-05-02T12:46:59;21.00;48.50
45803;DHT22;31504;51.716;9.184;2023-05-02T12:50:00;21.00;48.50
45803;DHT22;31504;51.716;9.184;2023-05-02T12:53:00;21.00;48.40
45803;DHT22;31504;51.716;9.184;2023-05-02T12:56:03;21.10;48.40
45803;DHT22;31504;51.716;9.184;2023-05-02T12:59:03;21.00;48.40
45803;DHT22;31504;51.716;9.184;2023-05-02T13:02:04;21.00;48.40
45803;DHT22;31504;51.716;9.184;2023-05-02T13:05:15;21.00;48.30
45803;DHT22;31504;51.716;9.184;2023-05-02T13:08:15;21.00;48.40
45803;DHT22;31504;51.716;9.184;2023-05-02T13:11:16;21.00;48.50
45803;DHT22;31504;51.716;9.184;2023-05-02T13:14:17;21.00;48.50
45803;DHT22;31504;51.716;9.184;2023-05-02T13:17:17;21.00;48.40
45803;DHT22;31504;51.716;9.184;2023-05-02T13:20:18;21.00;48.10
45803;DHT22;31504;51.716;9.184;2023-05-02T13:23:18;20.80;47.00
45803;DHT22;31504;51.716;9.184;2023-05-02T13:26:19;20.70;45.60
45803;DHT22;31504;51.716;9.184;2023-05-02T13:29:20;20.60;44.30
45803;DHT22;31504;51.716;9.184;2023-05-02T13:32:20;20.50;45.00
45803;DHT22;31504;51.716;9.184;2023-05-02T13:35:21;20.60;45.60
45803;DHT22;31504;51.716;9.184;2023-05-02T13:38:21;20.70;45.60
45803;DHT22;31504;51.716;9.184;2023-05-02T13:41:22;20.80;45.80
45803;DHT22;31504;51.716;9.184;2023-05-02T13:44:23;20.80;46.40
45803;DHT22;31504;51.716;9.184;2023-05-02T13:47:24;20.90;45.80
45803;DHT22;31504;51.716;9.184;2023-05-02T13:50:25;21.00;45.90
45803;DHT22;31504;51.716;9.184;2023-05-02T13:53:26;21.00;46.10
45803;DHT22;31504;51.716;9.184;2023-05-02T13:56:26;21.00;46.30
45803;DHT22;31504;51.716;9.184;2023-05-02T13:59:27;21.00;46.40
45803;DHT22;31504;51.716;9.184;2023-05-02T14:02:27;21.10;46.50
45803;DHT22;31504;51.716;9.184;2023-05-02T14:05:28;21.10;46.60
45803;DHT22;31504;51.716;9.184;2023-05-02T14:08:28;21.00;46.60
45803;DHT22;31504;51.716;9.184;2023-05-02T14:11:29;21.00;46.60
45803;DHT22;31504;51.716;9.184;2023-05-02T14:14:29;21.10;46.70
45803;DHT22;31504;51.716;9.184;2023-05-02T14:17:30;21.00;46.70
45803;DHT22;31504;51.716;9.184;2023-05-02T14:20:31;21.10;46.60
45803;DHT22;31504;51.716;9.184;2023-05-02T14:23:33;21.00;46.60
45803;DHT22;31504;51.716;9.184;2023-05-02T14:26:34;21.00;46.50
45803;DHT22;31504;51.716;9.184;2023-05-02T14:29:35;21.00;46.40
45803;DHT22;31504;51.716;9.184;2023-05-02T14:32:35;21.00;46.50
45803;DHT22;31504;51.716;9.184;2023-05-02T14:35:35;21.00;47.10
45803;DHT22;31504;51.716;9.184;2023-05-02T14:38:36;21.00;46.50
45803;DHT22;31504;51.716;9.184;2023-05-02T14:41:40;21.00;46.30
45803;DHT22;31504;51.716;9.184;2023-05-02T14:44:41;21.00;46.20
45803;DHT22;31504;51.716;9.184;2023-05-02T14:47:41;21.00;46.80
45803;DHT22;31504;51.716;9.184;2023-05-02T14:50:42;21.00;46.10
45803;DHT22;31504;51.716;9.184;2023-05-02T14:53:42;21.00;46.00
45803;DHT22;31504;51.716;9.184;2023-05-02T14:56:43;21.00;46.10
45803;DHT22;31504;51.716;9.184;2023-05-02T14:59:43;21.00;46.00
45803;DHT22;31504;51.716;9.184;2023-05-02T15:02:44;21.00;46.00
45803;DHT22;31504;51.716;9.184;2023-05-02T15:05:44;21.00;45.70
45803;DHT22;31504;51.716;9.184;2023-05-02T15:08:46;21.00;45.70
45803;DHT22;31504;51.716;9.184;2023-05-02T15:11:46;21.00;45.80
45803;DHT22;31504;51.716;9.184;2023-05-02T15:14:47;21.00;45.80
45803;DHT22;31504;51.716;9.184;2023-05-02T15:17:47;21.00;45.80
45803;DHT22;31504;51.716;9.184;2023-05-02T15:20:48;21.00;45.70
45803;DHT22;31504;51.716;9.184;2023-05-02T15:23:48;21.10;45.80
45803;DHT22;31504;51.716;9.184;2023-05-02T15:26:49;21.00;45.60
45803;DHT22;31504;51.716;9.184;2023-05-02T15:29:50;21.00;45.60
45803;DHT22;31504;51.716;9.184;2023-05-02T15:32:53;21.00;45.60
45803;DHT22;31504;51.716;9.184;2023-05-02T15:35:55;21.00;45.60
45803;DHT22;31504;51.716;9.184;2023-05-02T15:38:57;21.00;45.50
45803;DHT22;31504;51.716;9.184;2023-05-02T15:42:00;21.00;45.50
45803;DHT22;31504;51.716;9.184;2023-05-02T15:45:03;21.00;45.60
45803;DHT22;31504;51.716;9.184;2023-05-02T15:48:03;21.00;45.50
45803;DHT22;31504;51.716;9.184;2023-05-02T15:51:04;21.00;45.50
45803;DHT22;31504;51.716;9.184;2023-05-02T15:54:04;21.00;45.50
45803;DHT22;31504;51.716;9.184;2023-05-02T15:57:06;21.00;45.40
45803;DHT22;31504;51.716;9.184;2023-05-02T16:00:06;21.00;45.30
45803;DHT22;31504;51.716;9.184;2023-05-02T16:03:10;21.00;45.30
45803;DHT22;31504;51.716;9.184;2023-05-02T16:06:14;21.00;45.20
45803;DHT22;31504;51.716;9.184;2023-05-02T16:09:16;21.00;45.40
45803;DHT22;31504;51.716;9.184;2023-05-02T16:12:17;21.00;45.20
45803;DHT22;31504;51.716;9.184;2023-05-02T16:15:18;21.00;45.20
45803;DHT22;31504;51.716;9.184;2023-05-02T16:18:18;21.00;45.20
45803;DHT22;31504;51.716;9.184;2023-05-02T16:21:19;21.00;45.40
45803;DHT22;31504;51.716;9.184;2023-05-02T16:24:21;21.00;45.50
45803;DHT22;31504;51.716;9.184;2023-05-02T16:27:22;21.00;45.50
45803;DHT22;31504;51.716;9.184;2023-05-02T16:30:24;21.00;45.50
45803;DHT22;31504;51.716;9.184;2023-05-02T16:33:32;21.00;45.60
45803;DHT22;31504;51.716;9.184;2023-05-02T16:36:36;21.00;45.60
45803;DHT22;31504;51.716;9.184;2023-05-02T16:39:37;21.00;45.60
45803;DHT22;31504;51.716;9.184;2023-05-02T16:42:39;21.00;45.70
45803;DHT22;31504;51.716;9.184;2023-05-02T16:45:39;21.00;45.70
45803;DHT22;31504;51.716;9.184;2023-05-02T16:48:40;21.00;45.70
45803;DHT22;31504;51.716;9.184;2023-05-02T16:51:40;21.00;45.80
45803;DHT22;31504;51.716;9.184;2023-05-02T16:54:41;21.10;45.90
45803;DHT22;31504;51.716;9.184;2023-05-02T16:57:41;21.00;45.80
45803;DHT22;31504;51.716;9.184;2023-05-02T17:00:43;21.10;45.90
45803;DHT22;31504;51.716;9.184;2023-05-02T17:03:43;21.10;45.80
45803;DHT22;31504;51.716;9.184;2023-05-02T17:06:43;21.10;45.70
45803;DHT22;31504;51.716;9.184;2023-05-02T17:09:44;21.10;45.60
45803;DHT22;31504;51.716;9.184;2023-05-02T17:12:44;21.00;45.50
45803;DHT22;31504;51.716;9.184;2023-05-02T17:15:45;21.00;45.40
45803;DHT22;31504;51.716;9.184;2023-05-02T17:18:46;21.00;45.40
45803;DHT22;31504;51.716;9.184;2023-05-02T17:21:47;21.00;45.40
45803;DHT22;31504;51.716;9.184;2023-05-02T17:24:48;21.00;45.30
45803;DHT22;31504;51.716;9.184;2023-05-02T17:27:52;21.00;45.40
45803;DHT22;31504;51.716;9.184;2023-05-02T17:30:52;21.00;45.40
45803;DHT22;31504;51.716;9.184;2023-05-02T17:33:53;21.00;45.00
45803;DHT22;31504;51.716;9.184;2023-05-02T17:36:54;21.00;45.00
45803;DHT22;31504;51.716;9.184;2023-05-02T17:39:56;21.00;45.10
45803;DHT22;31504;51.716;9.184;2023-05-02T17:42:56;21.00;44.90
45803;DHT22;31504;51.716;9.184;2023-05-02T17:45:58;21.00;44.90
45803;DHT22;31504;51.716;9.184;2023-05-02T17:48:58;21.00;44.90
45803;DHT22;31504;51.716;9.184;2023-05-02T17:52:00;21.00;44.90
45803;DHT22;31504;51.716;9.184;2023-05-02T17:55:01;21.00;45.10
45803;DHT22;31504;51.716;9.184;2023-05-02T17:58:02;21.00;45.10
45803;DHT22;31504;51.716;9.184;2023-05-02T18:01:11;21.00;45.00
45803;DHT22;31504;51.716;9.184;2023-05-02T18:04:12;21.00;45.20
45803;DHT22;31504;51.716;9.184;2023-05-02T18:07:14;21.00;45.20
45803;DHT22;31504;51.716;9.184;2023-05-02T18:10:18;21.00;45.30
45803;DHT22;31504;51.716;9.184;2023-05-02T18:13:18;21.00;45.30
45803;DHT22;31504;51.716;9.184;2023-05-02T18:16:18;21.00;45.30
45803;DHT22;31504;51.716;9.184;2023-05-02T18:19:19;21.00;45.30
45803;DHT22;31504;51.716;9.184;2023-05-02T18:22:21;21.00;45.30
45803;DHT22;31504;51.716;9.184;2023-05-02T18:25:21;21.00;45.30
45803;DHT22;31504;51.716;9.184;2023-05-02T18:28:22;21.00;45.30
45803;DHT22;31504;51.716;9.184;2023-05-02T18:31:22;21.00;45.30
45803;DHT22;31504;51.716;9.184;2023-05-02T18:34:23;21.00;45.30
45803;DHT22;31504;51.716;9.184;2023-05-02T18:37:23;21.00;45.30
45803;DHT22;31504;51.716;9.184;2023-05-02T18:40:30;21.10;45.30
45803;DHT22;31504;51.716;9.184;2023-05-02T18:43:31;21.00;45.20
45803;DHT22;31504;51.716;9.184;2023-05-02T18:46:32;21.00;45.20
45803;DHT22;31504;51.716;9.184;2023-05-02T18:49:33;21.00;45.20
45803;DHT22;31504;51.716;9.184;2023-05-02T18:52:34;21.00;45.30
45803;DHT22;31504;51.716;9.184;2023-05-02T18:55:36;21.00;45.20
45803;DHT22;31504;51.716;9.184;2023-05-02T18:58:36;21.00;45.20
45803;DHT22;31504;51.716;9.184;2023-05-02T19:01:37;21.00;45.10
45803;DHT22;31504;51.716;9.184;2023-05-02T19:04:37;21.00;45.20
45803;DHT22;31504;51.716;9.184;2023-05-02T19:07:37;21.00;45.20
45803;DHT22;31504;51.716;9.184;2023-05-02T19:10:39;21.00;45.00
45803;DHT22;31504;51.716;9.184;2023-05-02T19:13:39;21.00;45.10
45803;DHT22;31504;51.716;9.184;2023-05-02T19:16:40;21.00;45.00
45803;DHT22;31504;51.716;9.184;2023-05-02T19:19:40;21.00;45.00
45803;DHT22;31504;51.716;9.184;2023-05-02T19:22:41;21.00;44.90
45803;DHT22;31504;51.716;9.184;2023-05-02T19:25:43;20.90;44.90
45803;DHT22;31504;51.716;9.184;2023-05-02T19:28:43;20.90;44.90
45803;DHT22;31504;51.716;9.184;2023-05-02T19:31:44;21.00;45.00
45803;DHT22;31504;51.716;9.184;2023-05-02T19:34:45;20.90;45.00
45803;DHT22;31504;51.716;9.184;2023-05-02T19:37:46;20.90;45.00
45803;DHT22;31504;51.716;9.184;2023-05-02T19:40:46;20.90;45.30
45803;DHT22;31504;51.716;9.184;2023-05-02T19:43:47;20.90;45.10